Carlsbad Caverns National Park, NM

2:31 AM MDT on September 02, 2015 (GMT -0600)
KNMCARLS3 | | Change Station
CLOSE
Current Station
Personal Weather Station
Location: Carlsbad, NM
Elevation: 3158 ft
Nearby Weather Stations

Elev 3158 ft 32.43 °N, 104.25 °W | Updated 4 seconds ago

Clear
Clear
73.3 °F
Feels Like 77 °F
N
0.0
Wind Variable Wind from North
Gusts 1.0 mph

Today
High -- | Low -- °F
--% Chance of Precip.
Yesterday
High -- | Low -- °F
Precip. -- in
6:32 AM 7:20 PM
Waning Gibbous, 82% visible
Pressure 29.87 in
Visibility 10.0 miles
Clouds Clear
Heat Index 77 °F
Dew Point 54 °F
Humidity 51%
Rainfall 0.00 in
Snow Depth Not available.
UV 0 out of 12
Pollen 9.30 out of 12
Air Quality Not available.
Flu Activity Not available.
METAR KCNM 020753Z AUTO 18010KT 10SM CLR 25/10 A3006 RMK AO2 SLP114 T02500100
Pressure 29.87 in
Visibility 10.0 miles
Clouds Clear
Heat Index 77 °F
Dew Point 54 °F
Humidity 51%
Rainfall 0.00 in
Snow Depth Not available.
UV 0 out of 12
Pollen 9.30 out of 12
Air Quality Not available.
Flu Activity Not available.
METAR KCNM 020753Z AUTO 18010KT 10SM CLR 25/10 A3006 RMK AO2 SLP114 T02500100

10-Day Weather Forecast

×

Almanac

Astronomy

Sep. 02, 2015 Rise Set
Actual Time
Civil Twilight
Nautical Twilight
Astronomical Twilight
Moon
Length of Visible Light
Length of Day
Tomorrow will be .
, % of the Moon is Illuminated

Today's Extremes

State Highs State Lows

Community

WunderPhotos

Upload Photos

1,851,728 photos uploaded!

WunderBlogs® & News

Nearby

Air Quality

  Air Quality AQ Index Pollutant
Not available.

Snow Depth

Station Depth Elevation

Earthquake Activity

City Distance Mag. Time & Date
Minimum magnitude displayed is 2.5.

Coastal Water Temperatures

Place Temperature

Stations

Nearby Weather Stations

Station Location Temp. Windchill Dew Point Humidity Wind Precip. Elev Updated Type